Time;durP1;ratioP1;P1;durP2;ratioP2;P2;SDS_P1;SDS_P2;PMS_P1;PMS_P2;Temp;Humidity;BMP_temperature;BMP_pressure;BME280_temperature;BME280_humidity;BME280_pressure;Samples;Min_cycle;Max_cycle;Signal;HPM_P1;HPM_P2
2020/12/18 00:00:32;;;;;;;9.27;3.95;;;17.20;66.10;;;;;;2090331;28;20049;-75
2020/12/18 00:01:35;;;;;;;7.38;3.10;;;17.30;65.30;;;;;;2090398;28;20064;-76
2020/12/18 00:02:37;;;;;;;8.40;3.83;;;17.40;65.10;;;;;;2090305;28;20048;-74
2020/12/18 00:03:39;;;;;;;9.50;4.55;;;17.50;64.70;;;;;;2090356;28;20060;-75
2020/12/18 00:04:46;;;;;;;9.85;3.83;;;17.40;64.70;;;;;;2090504;28;20097;-76
2020/12/18 00:05:48;;;;;;;13.15;4.70;;;17.20;65.10;;;;;;2090324;28;20045;-76
2020/12/18 00:06:49;;;;;;;13.18;3.95;;;17.00;65.10;;;;;;2090347;28;20048;-77
2020/12/18 00:07:51;;;;;;;9.75;3.30;;;17.00;65.90;;;;;;2090488;28;20076;-75
2020/12/18 00:08:52;;;;;;;10.05;3.50;;;17.20;65.80;;;;;;2090444;28;20405;-74
2020/12/18 00:09:54;;;;;;;10.95;4.75;;;17.30;65.50;;;;;;2090672;28;20049;-76
2020/12/18 00:10:56;;;;;;;17.95;5.35;;;17.10;65.30;;;;;;2090123;28;20132;-74
2020/12/18 00:11:57;;;;;;;10.63;4.50;;;17.10;65.00;;;;;;2090120;28;20402;-76
2020/12/18 00:13:00;;;;;;;15.35;5.47;;;17.00;66.00;;;;;;2091308;28;20501;-76
2020/12/18 00:14:02;;;;;;;11.68;4.78;;;16.90;66.00;;;;;;2091161;28;20056;-76
2020/12/18 00:15:03;;;;;;;12.82;5.18;;;16.80;66.30;;;;;;2091539;28;20045;-76
2020/12/18 00:16:05;;;;;;;10.00;3.67;;;16.90;66.10;;;;;;2091034;28;20132;-75
2020/12/18 00:17:07;;;;;;;9.75;3.35;;;17.10;66.10;;;;;;2091288;28;20041;-75
2020/12/18 00:18:08;;;;;;;9.00;3.58;;;17.20;65.80;;;;;;2091040;28;20452;-74
2020/12/18 00:19:25;;;;;;;10.15;3.83;;;17.50;65.20;;;;;;2089722;28;20122;-76
2020/12/18 00:20:27;;;;;;;14.02;4.07;;;17.50;64.50;;;;;;2089826;28;20045;-75
2020/12/18 00:21:28;;;;;;;15.77;5.03;;;17.30;64.80;;;;;;2090469;28;20049;-75
2020/12/18 00:22:30;;;;;;;15.57;5.50;;;17.00;65.10;;;;;;2091631;28;20286;-75
2020/12/18 00:23:33;;;;;;;12.52;3.95;;;16.70;66.40;;;;;;2092546;28;20045;-73
2020/12/18 00:24:35;;;;;;;13.50;4.63;;;16.90;66.80;;;;;;2093453;28;20049;-74
2020/12/18 00:25:37;;;;;;;7.32;3.47;;;16.60;66.50;;;;;;2093243;28;20060;-77
2020/12/18 00:26:38;;;;;;;11.50;4.53;;;16.60;67.30;;;;;;2100775;28;20063;-74
2020/12/18 00:27:40;;;;;;;15.38;5.70;;;16.60;66.60;;;;;;2100261;28;20116;-74
2020/12/18 00:28:44;;;;;;;13.05;5.30;;;16.10;68.00;;;;;;2092686;28;20063;-73
2020/12/18 00:29:45;;;;;;;7.80;3.50;;;16.50;68.00;;;;;;2092898;28;20049;-74
2020/12/18 00:30:49;;;;;;;17.73;5.32;;;16.60;67.70;;;;;;2099416;28;20063;-74
2020/12/18 00:31:51;;;;;;;12.10;4.20;;;16.40;67.70;;;;;;2098997;28;20074;-73
2020/12/18 00:32:52;;;;;;;17.85;6.57;;;16.30;68.10;;;;;;2092051;28;20041;-74
2020/12/18 00:33:54;;;;;;;18.88;7.07;;;16.10;68.10;;;;;;2093818;28;20059;-76
2020/12/18 00:34:56;;;;;;;16.23;6.00;;;15.90;68.60;;;;;;2093895;28;20521;-78
2020/12/18 00:35:58;;;;;;;15.48;5.53;;;15.60;70.00;;;;;;2094216;28;20550;-76
2020/12/18 00:37:00;;;;;;;13.02;4.30;;;15.70;70.00;;;;;;2094412;28;20071;-75
2020/12/18 00:38:02;;;;;;;8.68;4.07;;;15.90;70.10;;;;;;2094169;28;20056;-77
2020/12/18 00:39:06;;;;;;;17.08;6.13;;;16.00;70.00;;;;;;2091061;28;20490;-74
2020/12/18 00:40:09;;;;;;;15.05;4.97;;;16.10;69.10;;;;;;2091546;28;20068;-74
2020/12/18 00:41:12;;;;;;;12.52;4.85;;;16.10;69.60;;;;;;2091551;28;20053;-75
2020/12/18 00:42:14;;;;;;;11.25;4.90;;;16.10;69.30;;;;;;2091362;28;20060;-75
2020/12/18 00:43:15;;;;;;;20.20;5.75;;;16.30;69.20;;;;;;2091567;28;20064;-74
2020/12/18 00:44:18;;;;;;;14.52;4.97;;;15.90;68.90;;;;;;2090300;28;20052;-74
2020/12/18 00:45:20;;;;;;;16.30;5.45;;;15.90;69.90;;;;;;2090342;28;20481;-76
2020/12/18 00:46:22;;;;;;;;;;;15.70;71.00;;;;;;2091186;28;20052;-77
2020/12/18 00:47:24;;;;;;;19.92;5.75;;;15.90;70.50;;;;;;2091003;28;19928;-75
2020/12/18 00:48:25;;;;;;;17.08;6.05;;;15.60;70.80;;;;;;2090875;28;20049;-76
2020/12/18 00:49:42;;;;;;;12.15;4.47;;;15.20;72.10;;;;;;2092215;28;20456;-77
2020/12/18 00:50:44;;;;;;;19.08;6.28;;;15.20;72.80;;;;;;2092194;28;20052;-76
2020/12/18 00:51:51;;;;;;;12.05;4.22;;;14.90;73.50;;;;;;2092447;28;20052;-77
2020/12/18 00:52:52;;;;;;;10.52;3.80;;;15.00;74.00;;;;;;2091654;28;20504;-76
2020/12/18 00:53:54;;;;;;;11.00;3.97;;;15.30;73.50;;;;;;2092058;28;20498;-75
2020/12/18 00:54:55;;;;;;;10.93;3.95;;;15.40;72.60;;;;;;2092426;28;20041;-76
2020/12/18 00:55:57;;;;;;;11.15;4.03;;;15.80;71.60;;;;;;2092262;28;20045;-77
2020/12/18 00:57:01;;;;;;;19.83;5.90;;;15.90;70.80;;;;;;2092930;28;20070;-76
2020/12/18 00:58:03;;;;;;;7.63;3.58;;;15.70;70.50;;;;;;2092183;28;20049;-77
2020/12/18 00:59:07;;;;;;;18.02;5.47;;;15.80;71.20;;;;;;2092758;28;20080;-75
2020/12/18 01:00:13;;;;;;;22.52;6.40;;;16.10;70.00;;;;;;2092628;28;20041;-77
2020/12/18 01:01:15;;;;;;;15.25;4.78;;;15.80;70.30;;;;;;2091532;28;20040;-77
2020/12/18 01:02:17;;;;;;;9.38;3.50;;;15.60;71.10;;;;;;2091877;28;20045;-77
2020/12/18 01:03:20;;;;;;;14.95;5.15;;;16.00;70.70;;;;;;2091715;28;20184;-78
2020/12/18 01:04:24;;;;;;;18.05;5.93;;;16.10;69.80;;;;;;2091372;28;20547;-76
2020/12/18 01:05:26;;;;;;;14.60;5.78;;;15.90;70.10;;;;;;2091673;28;20120;-77
2020/12/18 01:06:28;;;;;;;17.23;5.25;;;15.70;70.80;;;;;;2092416;28;20044;-77
2020/12/18 01:07:30;;;;;;;13.23;5.20;;;15.70;71.20;;;;;;2092297;28;20048;-77
2020/12/18 01:08:31;;;;;;;16.23;4.28;;;15.50;71.80;;;;;;2092223;28;20045;-77
2020/12/18 01:09:34;;;;;;;15.65;6.53;;;15.40;72.60;;;;;;2091011;28;20106;-74
2020/12/18 01:10:36;;;;;;;12.80;5.65;;;15.50;72.00;;;;;;2090594;28;20072;-73
2020/12/18 01:11:38;;;;;;;20.63;6.05;;;15.30;72.10;;;;;;2090520;28;20406;-75
2020/12/18 01:12:40;;;;;;;11.52;4.55;;;15.00;72.70;;;;;;2090622;28;20398;-74
2020/12/18 01:13:41;;;;;;;11.90;4.72;;;15.10;73.60;;;;;;2090527;28;20075;-75
2020/12/18 01:14:43;;;;;;;11.52;4.55;;;15.20;72.90;;;;;;2090332;28;20050;-74
2020/12/18 01:15:46;;;;;;;16.42;6.15;;;15.40;72.80;;;;;;2090436;28;20060;-74
2020/12/18 01:16:51;;;;;;;15.90;5.13;;;15.00;73.60;;;;;;2090513;28;20538;-74
2020/12/18 01:17:53;;;;;;;9.32;3.38;;;15.10;73.30;;;;;;2083219;28;20053;-73
2020/12/18 01:18:54;;;;;;;16.27;4.82;;;15.20;74.10;;;;;;2090710;28;20044;-75
2020/12/18 01:20:02;;;;;;;13.77;5.20;;;15.10;73.60;;;;;;2091189;28;20053;-74
2020/12/18 01:21:03;;;;;;;;;;;15.30;73.30;;;;;;2091362;28;20055;-76
2020/12/18 01:22:05;;;;;;;11.20;4.43;;;15.40;72.40;;;;;;2091382;28;20270;-77
2020/12/18 01:23:07;;;;;;;13.93;4.50;;;15.60;72.60;;;;;;2090567;28;20060;-75
2020/12/18 01:24:09;;;;;;;14.52;5.43;;;15.50;72.70;;;;;;2090537;28;20067;-74
2020/12/18 01:25:12;;;;;;;15.43;3.72;;;15.60;71.70;;;;;;2090577;28;20079;-74
2020/12/18 01:26:13;;;;;;;17.95;5.18;;;15.50;72.20;;;;;;2090115;28;20041;-76
2020/12/18 01:27:15;;;;;;;14.60;4.03;;;15.20;72.50;;;;;;2090013;28;20405;-75
2020/12/18 01:28:17;;;;;;;22.30;6.07;;;15.50;72.60;;;;;;2090016;28;20053;-74
2020/12/18 01:29:20;;;;;;;10.48;3.92;;;15.40;72.10;;;;;;2089627;28;20053;-74
2020/12/18 01:30:22;;;;;;;19.00;5.78;;;15.50;72.30;;;;;;2090516;28;20047;-76
2020/12/18 01:31:29;;;;;;;9.95;3.45;;;15.50;72.20;;;;;;2090592;28;20049;-75
2020/12/18 01:32:31;;;;;;;14.45;4.60;;;15.50;72.30;;;;;;2091254;28;20410;-76
2020/12/18 01:33:33;;;;;;;;;;;15.40;72.30;;;;;;2092010;28;20056;-76
2020/12/18 01:34:35;;;;;;;17.08;4.80;;;15.60;72.20;;;;;;2090785;28;20569;-75
2020/12/18 01:35:37;;;;;;;12.07;4.07;;;15.20;73.00;;;;;;2090894;28;20041;-77
2020/12/18 01:36:39;;;;;;;13.98;3.85;;;15.50;72.70;;;;;;2091509;28;20485;-76
2020/12/18 01:37:40;;;;;;;12.77;3.45;;;15.60;72.00;;;;;;2091509;28;20053;-77
2020/12/18 01:38:43;;;;;;;14.02;4.18;;;15.80;71.80;;;;;;2091545;28;20052;-77
2020/12/18 01:39:44;;;;;;;14.55;4.15;;;15.80;71.10;;;;;;2091166;28;20386;-77
2020/12/18 01:40:46;;;;;;;18.98;5.18;;;15.70;71.40;;;;;;2089500;28;20516;-75
2020/12/18 01:41:48;;;;;;;21.05;4.75;;;15.70;71.00;;;;;;2089901;28;20048;-74
2020/12/18 01:42:49;;;;;;;13.38;4.57;;;15.40;72.00;;;;;;2090080;28;20047;-75
2020/12/18 01:43:51;;;;;;;16.10;4.95;;;15.40;73.00;;;;;;2089426;28;20048;-75
2020/12/18 01:44:53;;;;;;;22.75;5.25;;;15.50;72.20;;;;;;2089400;28;20049;-75
2020/12/18 01:46:03;;;;;;;16.23;3.85;;;15.50;72.20;;;;;;2090978;28;20056;-76
2020/12/18 01:47:19;;;;;;;14.90;4.03;;;15.70;72.20;;;;;;2090678;28;20052;-76
2020/12/18 01:48:21;;;;;;;12.80;3.72;;;15.80;71.30;;;;;;2090354;28;20041;-76
2020/12/18 01:49:26;;;;;;;18.92;3.88;;;15.50;72.00;;;;;;2090736;28;20060;-77
2020/12/18 01:50:31;;;;;;;10.57;3.60;;;15.60;72.30;;;;;;2091702;28;20049;-78
2020/12/18 01:51:32;;;;;;;17.92;3.88;;;15.80;71.80;;;;;;2091738;28;20045;-75
2020/12/18 01:52:35;;;;;;;11.70;4.05;;;15.80;71.30;;;;;;2091695;28;20052;-77
2020/12/18 01:53:37;;;;;;;14.90;4.07;;;15.90;71.00;;;;;;2091405;28;20049;-77
2020/12/18 01:54:41;;;;;;;13.18;3.67;;;16.00;70.40;;;;;;2091092;28;20056;-76
2020/12/18 01:55:44;;;;;;;9.63;3.20;;;16.00;70.10;;;;;;2091083;28;20115;-76
2020/12/18 01:56:46;;;;;;;10.38;3.75;;;16.00;70.90;;;;;;2091260;28;20049;-75
2020/12/18 01:57:50;;;;;;;;;;;16.20;70.20;;;;;;2091597;28;20064;-77
2020/12/18 01:58:53;;;;;;;8.95;3.80;;;16.20;69.90;;;;;;2091334;28;19920;-77
2020/12/18 01:59:57;;;;;;;20.75;4.80;;;15.80;70.50;;;;;;2098761;28;20045;-77
2020/12/18 02:01:03;;;;;;;12.77;3.25;;;15.60;70.80;;;;;;2098225;28;20451;-78
2020/12/18 02:02:06;;;;;;;13.05;4.13;;;15.60;71.80;;;;;;2091651;28;20045;-77
2020/12/18 02:03:09;;;;;;;15.13;3.92;;;15.80;71.70;;;;;;2091513;28;20073;-77
2020/12/18 02:04:11;;;;;;;10.32;3.47;;;16.00;70.70;;;;;;2091622;28;20049;-77
2020/12/18 02:05:13;;;;;;;16.00;4.18;;;16.20;69.90;;;;;;2091063;28;20053;-77
2020/12/18 02:06:18;;;;;;;7.05;3.03;;;16.10;69.70;;;;;;2090757;28;20132;-77
2020/12/18 02:07:23;;;;;;;16.75;4.30;;;16.50;69.40;;;;;;2091459;28;20049;-77
2020/12/18 02:08:26;;;;;;;12.43;3.25;;;16.50;68.70;;;;;;2090606;28;20056;-77
2020/12/18 02:09:29;;;;;;;10.38;3.17;;;16.10;69.80;;;;;;2091715;28;20048;-77
2020/12/18 02:10:36;;;;;;;22.00;4.53;;;16.10;70.00;;;;;;2091142;28;20048;-76
2020/12/18 02:11:38;;;;;;;17.92;4.32;;;15.90;69.10;;;;;;2090826;28;20546;-77
2020/12/18 02:12:42;;;;;;;16.73;4.00;;;15.60;70.10;;;;;;2091711;28;20181;-76
2020/12/18 02:13:44;;;;;;;9.88;2.97;;;15.40;72.30;;;;;;2091564;28;20045;-78
2020/12/18 02:14:48;;;;;;;10.13;3.42;;;15.70;72.00;;;;;;2091802;28;20053;-76
2020/12/18 02:15:51;;;;;;;12.13;3.05;;;15.90;71.70;;;;;;2091159;28;20045;-78
2020/12/18 02:16:52;;;;;;;10.52;3.05;;;16.00;70.00;;;;;;2091058;28;20049;-77
2020/12/18 02:18:01;;;;;;;15.02;3.42;;;16.10;70.20;;;;;;2091492;28;20049;-77
2020/12/18 02:19:05;;;;;;;10.77;3.00;;;16.30;69.20;;;;;;2092074;28;20421;-75
2020/12/18 02:20:06;;;;;;;15.35;3.20;;;16.50;68.90;;;;;;2091602;28;20057;-77
2020/12/18 02:21:09;;;;;;;19.63;4.68;;;16.30;68.90;;;;;;2091454;28;20053;-74
2020/12/18 02:22:12;;;;;;;12.48;2.97;;;16.10;68.40;;;;;;2090288;28;20049;-76
2020/12/18 02:23:14;;;;;;;12.20;3.90;;;16.20;69.70;;;;;;2090295;28;20087;-74
2020/12/18 02:24:24;;;;;;;9.52;2.78;;;16.10;69.10;;;;;;2090218;28;20053;-76
2020/12/18 02:25:31;;;;;;;18.00;4.65;;;16.30;69.70;;;;;;2089972;28;20132;-76
2020/12/18 02:26:33;;;;;;;7.15;3.25;;;16.10;69.10;;;;;;2089830;28;20056;-77
2020/12/18 02:27:36;;;;;;;14.50;4.40;;;16.40;68.70;;;;;;2091125;28;20076;-75
2020/12/18 02:28:38;;;;;;;11.00;3.78;;;16.00;68.90;;;;;;2091580;28;20049;-75
2020/12/18 02:29:42;;;;;;;;;;;16.00;69.60;;;;;;2091838;28;20045;-74
2020/12/18 02:30:44;;;;;;;15.82;4.80;;;16.00;69.50;;;;;;2091636;28;19928;-77
2020/12/18 02:31:47;;;;;;;16.33;4.07;;;16.00;69.20;;;;;;2091540;28;20494;-77
2020/12/18 02:32:49;;;;;;;10.73;3.13;;;16.00;69.50;;;;;;2091483;28;20049;-77
2020/12/18 02:33:51;;;;;;;6.32;2.22;;;16.30;70.20;;;;;;2091474;28;20040;-77
2020/12/18 02:34:52;;;;;;;12.52;3.85;;;16.40;69.30;;;;;;2091367;28;20086;-74
2020/12/18 02:35:54;;;;;;;9.82;2.85;;;16.40;68.60;;;;;;2091776;28;20044;-77
2020/12/18 02:36:56;;;;;;;8.10;3.17;;;16.50;68.90;;;;;;2091446;28;20053;-75
2020/12/18 02:37:57;;;;;;;7.65;2.78;;;16.40;68.60;;;;;;2091586;28;20405;-75
2020/12/18 02:39:00;;;;;;;8.80;2.92;;;16.70;68.30;;;;;;2091563;28;20056;-76
2020/12/18 02:40:03;;;;;;;6.72;2.53;;;16.80;67.90;;;;;;2091317;28;20398;-77
2020/12/18 02:41:05;;;;;;;16.52;3.88;;;16.90;67.50;;;;;;2091363;28;20049;-75
2020/12/18 02:42:08;;;;;;;8.32;3.08;;;16.80;66.90;;;;;;2090565;28;20502;-77
2020/12/18 02:43:10;;;;;;;12.75;2.72;;;16.90;67.50;;;;;;2090867;28;20048;-76
2020/12/18 02:44:12;;;;;;;9.82;3.65;;;17.10;66.90;;;;;;2091131;28;20056;-76
2020/12/18 02:45:13;;;;;;;13.07;3.60;;;17.10;66.20;;;;;;2091067;28;20052;-77
2020/12/18 02:46:18;;;;;;;10.85;3.42;;;16.90;66.20;;;;;;2091954;28;20512;-74
2020/12/18 02:47:22;;;;;;;12.38;3.47;;;16.80;66.00;;;;;;2092305;28;20222;-74
2020/12/18 02:48:26;;;;;;;16.55;4.03;;;16.70;66.90;;;;;;2091086;28;20557;-76
2020/12/18 02:49:27;;;;;;;8.25;2.45;;;16.50;66.60;;;;;;2091008;28;20049;-76
2020/12/18 02:50:29;;;;;;;7.68;2.85;;;16.80;68.00;;;;;;2091857;28;20049;-75
2020/12/18 02:51:31;;;;;;;7.95;2.80;;;16.80;67.30;;;;;;2091279;28;20070;-77
2020/12/18 02:52:32;;;;;;;12.38;2.80;;;17.00;67.00;;;;;;2091991;28;20421;-75
2020/12/18 02:53:34;;;;;;;8.73;3.22;;;17.10;66.70;;;;;;2091762;28;20045;-78
2020/12/18 02:54:36;;;;;;;6.53;2.92;;;17.20;67.00;;;;;;2091553;28;20053;-75
2020/12/18 02:55:37;;;;;;;8.77;3.40;;;17.20;65.80;;;;;;2091781;28;20040;-75
2020/12/18 02:56:40;;;;;;;13.85;4.38;;;17.30;65.80;;;;;;2091912;28;20045;-74
2020/12/18 02:57:42;;;;;;;11.40;3.45;;;17.10;65.00;;;;;;2091332;28;20053;-75
2020/12/18 02:58:45;;;;;;;8.93;3.30;;;16.90;65.80;;;;;;2092457;28;20045;-74
2020/12/18 02:59:46;;;;;;;19.95;5.32;;;16.80;66.40;;;;;;2092115;28;20056;-74
2020/12/18 03:00:48;;;;;;;9.00;2.95;;;16.60;65.30;;;;;;2091831;28;20477;-75
2020/12/18 03:01:50;;;;;;;8.80;2.47;;;16.70;67.20;;;;;;2091877;28;20048;-75
2020/12/18 03:02:52;;;;;;;6.35;2.78;;;16.50;67.40;;;;;;2091710;28;20056;-75
2020/12/18 03:03:53;;;;;;;9.30;3.75;;;16.50;67.90;;;;;;2091951;28;20056;-77
2020/12/18 03:04:55;;;;;;;8.32;3.08;;;16.70;66.60;;;;;;2091769;28;20190;-75
2020/12/18 03:05:57;;;;;;;11.25;3.33;;;16.60;67.00;;;;;;2091568;28;20056;-75
2020/12/18 03:06:58;;;;;;;9.00;3.53;;;16.80;67.10;;;;;;2092058;28;20056;-75
2020/12/18 03:08:00;;;;;;;16.27;5.28;;;16.80;66.20;;;;;;2092153;28;20053;-75
2020/12/18 03:09:03;;;;;;;14.55;4.13;;;16.50;65.50;;;;;;2092278;28;20053;-73
2020/12/18 03:10:05;;;;;;;15.30;4.05;;;16.60;67.00;;;;;;2092188;28;20056;-74
2020/12/18 03:11:07;;;;;;;10.63;3.25;;;16.60;66.30;;;;;;2092273;28;20073;-76
2020/12/18 03:12:08;;;;;;;10.45;3.33;;;16.60;67.40;;;;;;2092507;28;20060;-75
2020/12/18 03:13:11;;;;;;;10.18;3.08;;;16.50;67.60;;;;;;2092671;28;20060;-75
2020/12/18 03:14:12;;;;;;;18.27;4.82;;;16.40;67.60;;;;;;2091849;28;20049;-77
2020/12/18 03:15:15;;;;;;;9.02;3.13;;;16.40;66.30;;;;;;2092429;28;20374;-76
2020/12/18 03:16:17;;;;;;;11.82;3.70;;;16.10;68.00;;;;;;2092184;28;20075;-76
2020/12/18 03:17:19;;;;;;;6.88;3.20;;;16.20;68.40;;;;;;2091489;28;20104;-77
2020/12/18 03:18:21;;;;;;;7.28;2.70;;;16.30;68.20;;;;;;2092109;28;20528;-74
2020/12/18 03:19:22;;;;;;;15.15;3.67;;;16.20;68.00;;;;;;2092009;28;20091;-75
2020/12/18 03:20:24;;;;;;;18.90;4.72;;;16.30;66.90;;;;;;2091137;28;20705;-75
2020/12/18 03:21:26;;;;;;;10.27;3.40;;;15.80;67.30;;;;;;2092115;28;20060;-74
2020/12/18 03:22:27;;;;;;;9.40;3.28;;;16.20;68.80;;;;;;2092154;28;20079;-75
2020/12/18 03:23:29;;;;;;;11.52;3.95;;;16.20;68.40;;;;;;2092075;28;20059;-74
2020/12/18 03:24:31;;;;;;;9.48;2.90;;;16.30;67.00;;;;;;2091185;28;20057;-75
2020/12/18 03:25:33;;;;;;;12.52;3.97;;;16.30;67.70;;;;;;2091479;28;20050;-75
2020/12/18 03:26:35;;;;;;;11.75;4.00;;;16.40;68.00;;;;;;2092169;28;20053;-74
2020/12/18 03:27:36;;;;;;;;;;;16.50;67.50;;;;;;2092551;28;20044;-75
2020/12/18 03:28:38;;;;;;;15.05;4.45;;;16.30;66.20;;;;;;2092230;28;20388;-76
2020/12/18 03:29:40;;;;;;;8.40;3.08;;;15.90;67.70;;;;;;2091976;28;20052;-74
2020/12/18 03:30:42;;;;;;;10.10;3.85;;;16.20;68.30;;;;;;2091850;28;20129;-77
2020/12/18 03:31:44;;;;;;;11.98;3.42;;;16.10;68.20;;;;;;2090339;28;20049;-74
2020/12/18 03:32:46;;;;;;;12.48;3.38;;;16.30;67.80;;;;;;2090326;28;20049;-75
2020/12/18 03:33:47;;;;;;;12.05;3.50;;;16.00;68.00;;;;;;2091353;28;20064;-76
2020/12/18 03:34:50;;;;;;;14.32;4.10;;;16.20;68.50;;;;;;2091017;28;20049;-74
2020/12/18 03:35:51;;;;;;;27.60;5.90;;;16.00;66.20;;;;;;2091058;28;20493;-75
2020/12/18 03:36:53;;;;;;;10.20;3.60;;;15.50;66.70;;;;;;2092464;28;20067;-76
2020/12/18 03:37:55;;;;;;;14.50;4.13;;;15.60;68.90;;;;;;2092573;28;20049;-75
2020/12/18 03:38:56;;;;;;;11.48;3.30;;;15.60;69.60;;;;;;2091385;28;20075;-77
2020/12/18 03:39:58;;;;;;;10.95;3.15;;;15.80;69.20;;;;;;2092294;28;20489;-76
2020/12/18 03:41:03;;;;;;;10.20;2.92;;;16.10;68.70;;;;;;2092131;28;20052;-75
2020/12/18 03:42:07;;;;;;;8.85;3.10;;;15.80;68.30;;;;;;2092290;28;20132;-77
2020/12/18 03:43:09;;;;;;;10.23;2.78;;;15.90;69.00;;;;;;2092594;28;20056;-74
2020/12/18 03:44:12;;;;;;;9.77;3.75;;;16.20;69.00;;;;;;2092463;28;20049;-74
2020/12/18 03:45:13;;;;;;;6.97;3.55;;;16.00;67.40;;;;;;2092648;28;20076;-75
2020/12/18 03:46:15;;;;;;;8.00;3.08;;;15.90;67.60;;;;;;2093736;28;20041;-75
2020/12/18 03:47:18;;;;;;;9.90;3.47;;;16.00;68.70;;;;;;2092752;28;20048;-75
2020/12/18 03:48:20;;;;;;;10.98;3.50;;;16.00;67.90;;;;;;2093381;28;20076;-75
2020/12/18 03:49:22;;;;;;;7.35;3.05;;;15.70;68.00;;;;;;2093737;28;20055;-75
2020/12/18 03:50:24;;;;;;;6.38;3.17;;;15.90;69.60;;;;;;2093323;28;20516;-76
2020/12/18 03:51:37;;;;;;;9.10;3.17;;;16.20;68.60;;;;;;2093405;28;20120;-75
2020/12/18 03:52:39;;;;;;;6.88;2.83;;;16.20;67.60;;;;;;2093126;28;20053;-75
2020/12/18 03:53:40;;;;;;;11.00;3.55;;;16.50;68.20;;;;;;2093038;28;20052;-75
2020/12/18 03:54:42;;;;;;;10.43;3.00;;;16.50;65.80;;;;;;2093144;28;20045;-75
2020/12/18 03:55:44;;;;;;;11.48;3.75;;;16.50;67.80;;;;;;2092282;28;20072;-74
2020/12/18 03:56:45;;;;;;;8.82;2.80;;;16.30;66.60;;;;;;2092107;28;20056;-75
2020/12/18 03:57:47;;;;;;;9.60;2.97;;;16.40;67.20;;;;;;2091377;28;20391;-75
2020/12/18 03:58:49;;;;;;;8.68;2.95;;;16.50;66.50;;;;;;2092487;28;20049;-75
2020/12/18 03:59:51;;;;;;;6.35;2.78;;;16.40;66.10;;;;;;2092176;28;20045;-74
2020/12/18 04:00:53;;;;;;;5.57;2.80;;;16.50;67.30;;;;;;2091779;28;20053;-74
2020/12/18 04:01:55;;;;;;;11.75;3.60;;;16.60;65.90;;;;;;2092058;28;20497;-74
2020/12/18 04:02:56;;;;;;;5.68;2.47;;;16.60;65.50;;;;;;2092127;28;20045;-75
2020/12/18 04:03:58;;;;;;;9.25;3.08;;;16.50;66.40;;;;;;2093419;28;20045;-75
2020/12/18 04:05:00;;;;;;;7.25;3.13;;;16.70;66.80;;;;;;2093573;28;20401;-75
2020/12/18 04:06:01;;;;;;;14.43;3.35;;;16.60;66.20;;;;;;2093096;28;20052;-74
2020/12/18 04:07:03;;;;;;;8.68;2.70;;;16.50;66.20;;;;;;2092997;28;20049;-75
2020/12/18 04:08:06;;;;;;;13.38;3.72;;;16.40;66.10;;;;;;2092507;28;20060;-75
2020/12/18 04:09:08;;;;;;;11.15;3.38;;;16.30;65.10;;;;;;2093060;28;20041;-76
2020/12/18 04:10:09;;;;;;;5.82;2.60;;;16.20;65.90;;;;;;2092883;28;20053;-75
2020/12/18 04:11:11;;;;;;;8.00;2.30;;;16.20;67.60;;;;;;2093355;28;20045;-76
2020/12/18 04:12:13;;;;;;;5.85;2.25;;;16.50;67.60;;;;;;2092771;28;20068;-74
2020/12/18 04:13:15;;;;;;;12.00;3.85;;;16.70;67.10;;;;;;2093089;28;20045;-74
2020/12/18 04:14:17;;;;;;;9.52;3.20;;;16.50;65.70;;;;;;2093165;28;20049;-75
2020/12/18 04:15:22;;;;;;;9.77;3.30;;;16.20;65.80;;;;;;2093084;28;20041;-74
2020/12/18 04:16:25;;;;;;;6.43;2.83;;;16.20;67.60;;;;;;2092529;28;20413;-76
2020/12/18 04:17:28;;;;;;;9.75;3.22;;;16.40;67.70;;;;;;2091591;28;20056;-74
2020/12/18 04:18:29;;;;;;;6.53;2.45;;;16.60;66.80;;;;;;2091520;28;20057;-74
2020/12/18 04:19:31;;;;;;;8.07;2.80;;;16.70;66.80;;;;;;2090994;28;20049;-75
2020/12/18 04:20:33;;;;;;;8.48;2.65;;;16.80;66.10;;;;;;2091061;28;20136;-75
2020/12/18 04:21:51;;;;;;;6.75;2.53;;;17.00;65.80;;;;;;2090994;28;20098;-75
2020/12/18 04:22:53;;;;;;;8.48;2.92;;;17.20;65.40;;;;;;2090911;28;20053;-75
2020/12/18 04:23:55;;;;;;;5.05;2.50;;;17.20;64.60;;;;;;2098593;28;20044;-75
2020/12/18 04:24:56;;;;;;;7.18;2.53;;;17.30;64.50;;;;;;2098212;28;20060;-74
2020/12/18 04:25:58;;;;;;;6.97;2.20;;;17.30;64.40;;;;;;2091097;28;20049;-75
2020/12/18 04:27:00;;;;;;;4.50;2.30;;;17.50;64.20;;;;;;2090966;28;20045;-75
2020/12/18 04:28:01;;;;;;;6.38;2.53;;;17.60;63.50;;;;;;2091542;28;20044;-76
2020/12/18 04:29:03;;;;;;;10.35;2.70;;;17.60;63.50;;;;;;2091231;28;20049;-75
2020/12/18 04:30:06;;;;;;;6.72;2.85;;;17.60;63.40;;;;;;2091395;28;20045;-76
2020/12/18 04:31:09;;;;;;;8.77;2.88;;;17.60;62.30;;;;;;2091685;28;20045;-75
2020/12/18 04:32:11;;;;;;;11.27;3.47;;;17.40;63.50;;;;;;2091614;28;20509;-75
2020/12/18 04:33:12;;;;;;;11.85;3.58;;;17.20;62.50;;;;;;2091347;28;20068;-77
2020/12/18 04:34:14;;;;;;;6.75;2.90;;;16.90;63.10;;;;;;2090924;28;20064;-76
2020/12/18 04:35:16;;;;;;;6.43;2.30;;;16.80;64.30;;;;;;2090659;28;20056;-76
2020/12/18 04:36:17;;;;;;;;;;;17.00;65.20;;;;;;2091268;28;20049;-75
2020/12/18 04:37:19;;;;;;;7.90;2.50;;;17.20;64.60;;;;;;2090419;28;19963;-75
2020/12/18 04:38:21;;;;;;;6.15;2.35;;;17.30;64.50;;;;;;2091434;28;20055;-74
2020/12/18 04:39:23;;;;;;;6.43;2.58;;;17.30;64.20;;;;;;2093558;28;20052;-75
2020/12/18 04:40:27;;;;;;;5.13;2.13;;;17.50;64.10;;;;;;2093015;28;20040;-74
2020/12/18 04:41:28;;;;;;;6.68;2.50;;;17.50;63.40;;;;;;2093178;28;20048;-75
2020/12/18 04:42:33;;;;;;;6.13;2.47;;;17.50;63.20;;;;;;2093234;28;20053;-77
2020/12/18 04:43:34;;;;;;;11.27;3.75;;;17.60;63.50;;;;;;2093384;28;20041;-75
2020/12/18 04:44:36;;;;;;;15.48;3.67;;;17.40;61.90;;;;;;2091955;28;20053;-76
2020/12/18 04:45:38;;;;;;;;;;;17.10;63.00;;;;;;2093182;28;20095;-75
2020/12/18 04:46:42;;;;;;;12.43;4.47;;;17.40;64.20;;;;;;2093424;28;19932;-75
2020/12/18 04:47:47;;;;;;;6.90;2.63;;;17.20;62.00;;;;;;2093084;28;20053;-79
2020/12/18 04:48:50;;;;;;;6.65;2.95;;;17.30;64.20;;;;;;2093271;28;20055;-75
2020/12/18 04:49:53;;;;;;;6.03;2.53;;;17.20;64.00;;;;;;2094346;28;20041;-76
2020/12/18 04:50:56;;;;;;;8.52;3.72;;;17.50;64.10;;;;;;2093466;28;20041;-75
2020/12/18 04:52:12;;;;;;;7.18;3.00;;;17.50;62.20;;;;;;2094564;28;20108;-76
2020/12/18 04:53:14;;;;;;;9.25;2.78;;;17.20;63.70;;;;;;2093143;28;20413;-75
2020/12/18 04:54:22;;;;;;;9.85;3.33;;;17.00;63.10;;;;;;2092148;28;20444;-75
2020/12/18 04:55:27;;;;;;;5.30;2.35;;;17.00;64.60;;;;;;2093049;28;20045;-75
2020/12/18 04:56:31;;;;;;;7.35;2.65;;;17.10;64.20;;;;;;2093768;28;20044;-75
2020/12/18 04:57:34;;;;;;;9.07;3.25;;;17.10;63.90;;;;;;2093010;28;20052;-74
2020/12/18 04:58:36;;;;;;;11.88;3.42;;;17.10;63.40;;;;;;2093359;28;20049;-74
2020/12/18 04:59:43;;;;;;;9.27;3.55;;;16.80;63.30;;;;;;2093976;28;20494;-74
2020/12/18 05:00:46;;;;;;;5.97;2.30;;;16.70;64.30;;;;;;2092527;28;20049;-74
2020/12/18 05:01:53;;;;;;;6.80;2.95;;;16.80;65.40;;;;;;2092017;28;20044;-74
2020/12/18 05:02:54;;;;;;;8.70;2.72;;;16.80;65.40;;;;;;2091326;28;20608;-75
2020/12/18 05:03:57;;;;;;;13.70;2.80;;;16.80;65.00;;;;;;2092320;28;20516;-76
2020/12/18 05:05:00;;;;;;;7.78;2.78;;;16.90;64.90;;;;;;2093645;28;20045;-75
2020/12/18 05:06:05;;;;;;;9.88;3.15;;;16.90;64.60;;;;;;2093529;28;20060;-74
2020/12/18 05:07:08;;;;;;;7.80;2.85;;;16.70;64.10;;;;;;2094259;28;20105;-73
2020/12/18 05:08:09;;;;;;;;;;;16.70;65.20;;;;;;2094659;28;20051;-74
2020/12/18 05:09:11;;;;;;;12.98;4.60;;;16.60;65.60;;;;;;2094476;28;19920;-74
2020/12/18 05:10:13;;;;;;;9.75;3.90;;;16.40;64.30;;;;;;2094280;28;20486;-75
2020/12/18 05:11:16;;;;;;;10.23;3.45;;;16.60;66.40;;;;;;2094135;28;20230;-74
2020/12/18 05:12:19;;;;;;;6.00;2.38;;;16.80;65.30;;;;;;2093467;28;20124;-76
2020/12/18 05:13:20;;;;;;;;;;;16.80;64.40;;;;;;2094002;28;20053;-75
2020/12/18 05:14:28;;;;;;;7.82;3.10;;;16.60;64.60;;;;;;2093302;28;19928;-74
2020/12/18 05:15:32;;;;;;;12.48;3.17;;;16.50;65.10;;;;;;2092140;28;20417;-75
2020/12/18 05:16:34;;;;;;;6.90;2.72;;;16.40;64.30;;;;;;2090623;28;20049;-75
2020/12/18 05:17:37;;;;;;;11.00;3.15;;;16.30;66.50;;;;;;2089658;28;20057;-73
2020/12/18 05:18:42;;;;;;;12.32;3.72;;;16.40;66.20;;;;;;2089633;28;20132;-74
2020/12/18 05:19:45;;;;;;;7.10;2.70;;;16.20;64.50;;;;;;2090265;28;20059;-75
2020/12/18 05:20:47;;;;;;;8.88;3.45;;;16.10;65.40;;;;;;2090578;28;20053;-76
2020/12/18 05:21:52;;;;;;;10.05;3.05;;;15.90;66.10;;;;;;2090108;28;20513;-75
2020/12/18 05:22:54;;;;;;;12.60;4.05;;;16.00;67.90;;;;;;2089988;28;20513;-76
2020/12/18 05:23:57;;;;;;;9.48;3.28;;;15.90;66.00;;;;;;2089482;28;20086;-75
2020/12/18 05:24:59;;;;;;;8.70;2.78;;;15.90;67.00;;;;;;2089579;28;20056;-77